Imagination — C6FN2 — position and weather

sailwx.info

Track history (hours):
 
Tides and Currents Weather Stations Pressure Air Temp Water Temp Dewpoint Dewpoint Depression Visibility Wind Speed Wind Dir Waves Ship Positions

Imagination

Operator: Carnival Cruise Lines

Last reported at 2017-May-25 10:30 UTC. Time now 2017-May-25 10:29 UTC.
Position N 33°26' W 118°05'.

Type: Ship. MMSI: 309933000.

Date/timePositionNaut miles runAvg speedWind from/ knotsBaromVisibWave heightAir tempDewpointWater temp
2017-May-25 10:30N 33°26' W 118°05'611.6
2017-May-25 10:00N 33°20' W 118°03'611.9
2017-May-25 09:31N 33°15' W 118°00'611.9
2017-May-25 09:01N 33°09' W 117°58'713.1
2017-May-25 08:30N 33°03' W 117°55'715.0
2017-May-25 08:00N 32°56' W 117°52'714.8
2017-May-25 07:30N 32°49' W 117°49'714.9
2017-May-25 07:00N 32°42' W 117°46'815.2
2017-May-25 06:31N 32°35' W 117°43'815.1
2017-May-25 06:00N 32°28' W 117°39'714.8
2017-May-25 05:31N 32°21' W 117°36'815.1
2017-May-25 05:00N 32°15' W 117°30'714.9
2017-May-25 04:30N 32°09' W 117°25'714.7
2017-May-25 04:00N 32°03' W 117°19'36 2.6
2017-May-24 13:55N 31°50' W 116°39'5 8.3
2017-May-24 13:16N 31°51' W 116°46'4 9.2
2017-May-24 12:51N 31°53' W 116°49'410.1
2017-May-24 12:30N 31°54' W 116°53'510.1
2017-May-24 12:00N 31°56' W 116°59'510.2
2017-May-24 11:30N 31°58' W 117°05'510.0
2017-May-24 11:00N 31°59' W 117°10'5 9.9
2017-May-24 10:30N 32°01' W 117°15'510.0
2017-May-24 10:00N 32°04' W 117°20'5 9.7
2017-May-24 09:30N 32°08' W 117°23'5 9.9
2017-May-24 09:00N 32°11' W 117°28'5 9.9
2017-May-24 08:30N 32°15' W 117°32'5 9.9
2017-May-24 08:00N 32°20' W 117°34'5 9.9
2017-May-24 07:30N 32°24' W 117°35'510.6
2017-May-24 07:00N 32°30' W 117°36'510.2
2017-May-24 06:30N 32°34' W 117°39'510.1
2017-May-24 06:00N 32°37' W 117°44'510.5
2017-May-24 05:30N 32°42' W 117°46'510.7
2017-May-24 05:00N 32°47' W 117°48'510.8
2017-May-24 04:30N 32°52' W 117°51'510.6
2017-May-24 04:00N 32°56' W 117°55'510.0
2017-May-24 03:30N 33°00' W 117°57'5 9.9
2017-May-24 03:00N 33°05' W 118°01'510.1
2017-May-24 02:30N 33°08' W 118°05'5 9.8
2017-May-24 02:00N 33°12' W 118°08'5 9.9
2017-May-24 01:30N 33°16' W 118°12'510.0
2017-May-24 01:00N 33°19' W 118°17'3 5.5
2017-May-24 00:30N 33°21' W 118°19'0 0.1
2017-May-24 00:00N 33°21' W 118°19'0 0.2
2017-May-23 23:30N 33°21' W 118°19'0 0.1
2017-May-23 23:00N 33°21' W 118°19'0 0.0
2017-May-23 22:30N 33°21' W 118°19'0 0.1
2017-May-23 22:00N 33°21' W 118°19'0 0.0
2017-May-23 21:30N 33°21' W 118°19'0 0.0
2017-May-23 21:00N 33°21' W 118°19'0 0.1
2017-May-23 20:30N 33°21' W 118°19'0 0.1
2017-May-23 20:00N 33°21' W 118°19'0 0.0
2017-May-23 19:30N 33°21' W 118°19'0 0.0
2017-May-23 19:00N 33°21' W 118°19'0 0.0
2017-May-23 18:30N 33°21' W 118°19'0 0.0
2017-May-23 18:00N 33°21' W 118°19'0 0.0
2017-May-23 17:30N 33°21' W 118°19'0 0.0
2017-May-23 17:00N 33°21' W 118°19'0 0.0
2017-May-23 16:30N 33°21' W 118°19'0 0.0
2017-May-23 16:00N 33°21' W 118°19'0 0.0
2017-May-23 15:30N 33°21' W 118°19'0 0.1
2017-May-23 15:00N 33°21' W 118°19'0 0.1
2017-May-23 14:00N 33°21' W 118°19'2 4.2
2017-May-23 13:30N 33°20' W 118°17'3 6.9
2017-May-23 13:00N 33°16' W 118°17'4 7.0
2017-May-23 12:30N 33°13' W 118°17'4 7.0
2017-May-23 12:00N 33°09' W 118°16'4 7.1
2017-May-23 11:30N 33°06' W 118°16'4 7.3
2017-May-23 11:00N 33°03' W 118°13'4 7.3
2017-May-23 10:30N 33°00' W 118°10'4 7.4
2017-May-23 10:00N 32°58' W 118°07'4 7.4
2017-May-23 09:30N 32°55' W 118°04'4 7.5
2017-May-23 09:00N 32°53' W 118°00'4 7.6
2017-May-23 08:30N 32°50' W 117°58'4 7.7
2017-May-23 08:00N 32°46' W 117°56'4 7.7
2017-May-23 07:30N 32°43' W 117°54'4 8.1
2017-May-23 07:00N 32°39' W 117°51'4 8.1
2017-May-23 06:30N 32°36' W 117°48'4 8.8
2017-May-23 06:00N 32°36' W 117°43'5 9.1
2017-May-23 05:30N 32°33' W 117°38'5 9.0
2017-May-23 05:00N 32°28' W 117°38'5 9.2
2017-May-23 04:30N 32°24' W 117°38'5 9.2
2017-May-23 04:00N 32°19' W 117°38'5 9.2
2017-May-23 03:30N 32°15' W 117°38'4 9.0
2017-May-23 03:00N 32°10' W 117°38'4 8.5
2017-May-23 02:30N 32°06' W 117°38'4 8.4
2017-May-23 02:00N 32°02' W 117°38'4 8.4
2017-May-23 01:30N 31°58' W 117°38'4 7.8
2017-May-23 01:00N 31°54' W 117°40'4 8.6
2017-May-23 00:30N 31°52' W 117°44'4 8.4
2017-May-23 00:00N 31°50' W 117°49'4 8.7
2017-May-22 23:30N 31°48' W 117°53'4 8.5
2017-May-22 23:00N 31°46' W 117°58'4 8.6
2017-May-22 22:30N 31°45' W 118°03'4 7.9
2017-May-22 22:00N 31°45' W 118°08'4 8.3
2017-May-22 21:30N 31°42' W 118°12'4 8.3
2017-May-22 21:00N 31°38' W 118°12'4 7.5
2017-May-22 20:30N 31°35' W 118°10'4 8.3
2017-May-22 20:00N 31°35' W 118°05'4 8.8
2017-May-22 19:30N 31°36' W 118°00'4 8.7
2017-May-22 19:00N 31°38' W 117°55'4 8.3
2017-May-22 18:30N 31°39' W 117°51'4 8.3
2017-May-22 18:00N 31°41' W 117°46'5 9.5
2017-May-22 17:30N 31°43' W 117°42'714.2
2017-May-22 17:01N 31°49' W 117°37'815.7
2017-May-22 16:30N 31°57' W 117°37'715.0
2017-May-22 16:00N 32°04' W 117°37'5 9.0
2017-May-22 15:28N 32°09' W 117°37'4 8.0
2017-May-22 15:00N 32°13' W 117°37'8 7.9
2017-May-22 14:00N 32°21' W 117°36'4 7.9
2017-May-22 13:30N 32°25' W 117°36'4 7.7
2017-May-22 13:00N 32°29' W 117°37'4 7.4
2017-May-22 12:30N 32°32' W 117°37'3 6.4
2017-May-22 12:00N 32°35' W 117°39'4 7.3
2017-May-22 11:30N 32°36' W 117°43'3 6.6
2017-May-22 11:00N 32°38' W 117°46'3 6.8
2017-May-22 10:30N 32°41' W 117°48'3 6.7
2017-May-22 10:00N 32°44' W 117°49'3 6.4
2017-May-22 09:30N 32°47' W 117°51'3 6.4
2017-May-22 09:00N 32°50' W 117°52'3 6.5
2017-May-22 08:30N 32°53' W 117°54'3 6.6
2017-May-22 08:00N 32°56' W 117°55'3 6.6
2017-May-22 07:30N 32°59' W 117°57'3 6.6
2017-May-22 07:00N 33°03' W 117°58'3 6.6
2017-May-22 06:30N 33°06' W 117°60'3 6.6
2017-May-22 06:00N 33°09' W 118°01'3 6.8
2017-May-22 05:30N 33°12' W 118°03'3 6.7
2017-May-22 05:00N 33°15' W 118°04'3 6.7
2017-May-22 04:30N 33°18' W 118°06'3 6.7
2017-May-22 04:00N 33°21' W 118°07'3 7.0
2017-May-22 03:30N 33°24' W 118°09'4 7.2
2017-May-22 03:00N 33°28' W 118°10'4 7.7
2017-May-22 02:30N 33°31' W 118°12'5 9.2
2017-May-22 02:00N 33°36' W 118°13'611.4
2017-May-22 01:30N 33°41' W 118°12'4 7.5
2017-May-22 01:00N 33°45' W 118°11'0 0.1
2017-May-22 00:30N 33°45' W 118°11'0 0.0
2017-May-22 00:00N 33°45' W 118°11'0 0.0
2017-May-21 23:30N 33°45' W 118°11'0 0.0
2017-May-21 23:00N 33°45' W 118°11'0 0.0
2017-May-21 22:29N 33°45' W 118°11'0 0.0
2017-May-21 21:56N 33°45' W 118°11'0 0.0
2017-May-21 21:29N 33°45' W 118°11'0 0.0
2017-May-21 20:59N 33°45' W 118°11'0 0.0
2017-May-21 20:25N 33°45' W 118°11'0 0.0
2017-May-21 19:58N 33°45' W 118°11'0 0.0
2017-May-21 19:28N 33°45' W 118°11'0 0.0
2017-May-21 18:58N 33°45' W 118°11'0 0.0
2017-May-21 18:28N 33°45' W 118°11'0 0.1
2017-May-21 18:00N 33°45' W 118°11'0 0.0
2017-May-21 17:27N 33°45' W 118°11'0 0.0
2017-May-21 16:57N 33°45' W 118°11'0 0.0
2017-May-21 16:27N 33°45' W 118°11'0 0.0
2017-May-21 15:54N 33°45' W 118°11'0 0.0
2017-May-21 15:29N 33°45' W 118°11'0 0.0
2017-May-21 14:59N 33°45' W 118°11'0 0.0
2017-May-21 13:59N 33°45' W 118°11'0 0.0
2017-May-21 13:29N 33°45' W 118°11'0 0.0
2017-May-21 12:59N 33°45' W 118°11'0 0.7
2017-May-21 12:30N 33°45' W 118°11'3 6.4
2017-May-21 12:00N 33°42' W 118°11'510.6
2017-May-21 11:31N 33°36' W 118°10'611.2
2017-May-21 11:01N 33°31' W 118°08'611.5
2017-May-21 10:31N 33°26' W 118°05'611.7
2017-May-21 10:00N 33°20' W 118°03'611.6
2017-May-21 09:30N 33°15' W 118°00'611.6
2017-May-21 09:01N 33°09' W 117°58'612.2
2017-May-21 08:31N 33°04' W 117°56'815.3
2017-May-21 08:01N 32°56' W 117°52'815.3
2017-May-21 07:30N 32°49' W 117°49'815.2
2017-May-21 07:00N 32°42' W 117°46'815.1
2017-May-21 06:30N 32°35' W 117°43'815.0
2017-May-21 06:00N 32°28' W 117°39'714.9
2017-May-21 05:31N 32°22' W 117°35'714.8
2017-May-21 05:01N 32°15' W 117°31'714.8
2017-May-21 04:30N 32°09' W 117°25'815.0
2017-May-21 04:00N 32°03' W 117°20'714.6
2017-May-21 03:30N 31°59' W 117°13'714.9
2017-May-21 03:00N 31°58' W 117°04'714.6
2017-May-21 02:30N 31°55' W 116°56'714.6
2017-May-21 02:00N 31°53' W 116°48'2 0.2
2017-May-20 12:20N 31°53' W 116°51'6 6.5
2017-May-20 11:21N 31°51' W 116°58'2 6.4
2017-May-20 11:00N 31°51' W 117°00'3 6.2
2017-May-20 10:30N 31°50' W 117°04'3 6.3
2017-May-20 10:00N 31°49' W 117°07'3 6.4
2017-May-20 09:30N 31°48' W 117°11'3 6.3
2017-May-20 09:00N 31°47' W 117°15'3 6.4
2017-May-20 08:30N 31°46' W 117°18'3 6.3
2017-May-20 08:00N 31°45' W 117°22'3 6.2
2017-May-20 07:30N 31°45' W 117°25'3 6.3
2017-May-20 07:00N 31°44' W 117°29'3 6.5
2017-May-20 06:30N 31°43' W 117°33'3 6.6
2017-May-20 06:00N 31°42' W 117°36'3 6.5
2017-May-20 05:30N 31°41' W 117°40'3 6.3
2017-May-20 05:00N 31°40' W 117°44'3 6.4
2017-May-20 04:30N 31°39' W 117°47'3 6.4
2017-May-20 04:00N 31°38' W 117°51'3 6.6
2017-May-20 03:30N 31°38' W 117°55'3 6.5
2017-May-20 03:00N 31°37' W 117°58'3 6.4
2017-May-20 02:30N 31°36' W 118°02'3 6.4
2017-May-20 02:00N 31°35' W 118°05'3 6.5
2017-May-20 01:30N 31°34' W 118°09'3 5.5
2017-May-20 01:00N 31°35' W 118°12'3 6.6
2017-May-20 00:30N 31°38' W 118°12'3 6.5
2017-May-20 00:00N 31°42' W 118°12'3 6.3
2017-May-19 23:30N 31°44' W 118°10'3 6.6
2017-May-19 23:00N 31°45' W 118°06'3 6.2
2017-May-19 22:30N 31°45' W 118°02'3 6.5
2017-May-19 22:00N 31°46' W 117°58'3 6.3
2017-May-19 21:30N 31°46' W 117°55'3 6.6
2017-May-19 21:00N 31°47' W 117°51'3 6.3
2017-May-19 20:30N 31°48' W 117°47'3 6.3
2017-May-19 20:00N 31°49' W 117°44'3 6.2
2017-May-19 19:28N 31°49' W 117°40'3 6.2
2017-May-19 19:00N 31°51' W 117°37'3 6.3
2017-May-19 18:30N 31°54' W 117°37'3 6.2
2017-May-19 18:00N 31°57' W 117°37'3 6.3
2017-May-19 17:31N 32°00' W 117°38'3 6.5
2017-May-19 17:00N 32°03' W 117°38'3 6.5
2017-May-19 16:30N 32°07' W 117°39'3 6.7
2017-May-19 16:00N 32°10' W 117°39'3 6.9
2017-May-19 15:30N 32°13' W 117°40'3 6.7
2017-May-19 15:01N 32°17' W 117°41'7 6.5
2017-May-19 14:00N 32°23' W 117°42'3 6.5
2017-May-19 13:30N 32°26' W 117°42'3 6.5
2017-May-19 13:00N 32°30' W 117°43'3 6.5
2017-May-19 12:30N 32°33' W 117°43'3 6.6
2017-May-19 12:00N 32°36' W 117°44'3 6.4
2017-May-19 11:30N 32°39' W 117°45'3 6.4
2017-May-19 11:00N 32°42' W 117°46'3 6.6
2017-May-19 10:31N 32°45' W 117°47'3 6.7
2017-May-19 10:00N 32°49' W 117°48'3 6.5
2017-May-19 09:30N 32°52' W 117°50'3 6.2
2017-May-19 09:01N 32°54' W 117°51'3 6.6
2017-May-19 08:30N 32°57' W 117°53'3 6.3
2017-May-19 08:01N 33°00' W 117°55'3 6.4
2017-May-19 07:30N 33°03' W 117°56'3 6.3
2017-May-19 07:00N 33°06' W 117°58'3 6.4
2017-May-19 06:30N 33°09' W 117°59'3 6.3
2017-May-19 06:00N 33°12' W 118°01'3 6.2
2017-May-19 05:30N 33°14' W 118°03'3 6.3
2017-May-19 05:00N 33°17' W 118°05'3 6.5
2017-May-19 04:31N 33°20' W 118°06'3 6.5
2017-May-19 04:00N 33°23' W 118°08'3 6.4
2017-May-19 03:30N 33°26' W 118°09'3 6.5
2017-May-19 03:00N 33°29' W 118°11'3 6.3
2017-May-19 02:30N 33°32' W 118°12'4 8.2
2017-May-19 02:00N 33°36' W 118°13'611.5
2017-May-19 01:30N 33°42' W 118°12'3 7.0
2017-May-19 01:01N 33°45' W 118°11'0 0.0
2017-May-19 00:30N 33°45' W 118°11'0 0.0
2017-May-19 00:00N 33°45' W 118°11'0 0.0
2017-May-18 23:30N 33°45' W 118°11'0 0.0
2017-May-18 23:00N 33°45' W 118°11'0 0.0
2017-May-18 22:29N 33°45' W 118°11'0 0.0
2017-May-18 21:59N 33°45' W 118°11'0 0.0
2017-May-18 21:29N 33°45' W 118°11'0 0.0
2017-May-18 20:59N 33°45' W 118°11'0 0.0
2017-May-18 20:26N 33°45' W 118°11'0 0.0
2017-May-18 19:55N 33°45' W 118°11'0 0.0
2017-May-18 19:16N 33°45' W 118°11'0 0.0
2017-May-18 18:58N 33°45' W 118°11'0 0.0
2017-May-18 18:25N 33°45' W 118°11'0 0.0
2017-May-18 17:54N 33°45' W 118°11'0 0.0
2017-May-18 17:24N 33°45' W 118°11'0 0.0
2017-May-18 16:45N 33°45' W 118°11'0 0.0
2017-May-18 16:24N 33°45' W 118°11'0 0.0
2017-May-18 12:47N 33°45' W 118°11'0 1.0
2017-May-18 12:30N 33°45' W 118°11'3 6.6
2017-May-18 12:00N 33°42' W 118°11'510.8
2017-May-18 11:30N 33°36' W 118°10'611.6
2017-May-18 11:00N 33°31' W 118°08'511.0
2017-May-18 10:30N 33°25' W 118°06'611.3
2017-May-18 10:00N 33°20' W 118°03'612.7
2017-May-18 09:31N 33°14' W 117°60'815.2
2017-May-18 09:00N 33°07' W 117°57'815.3
2017-May-18 08:30N 33°00' W 117°54'815.5
2017-May-18 08:00N 32°53' W 117°51'815.4
2017-May-18 07:31N 32°45' W 117°48'815.2
2017-May-18 07:00N 32°39' W 117°44'714.9
2017-May-18 06:30N 32°32' W 117°41'714.6
2017-May-18 06:00N 32°25' W 117°37'714.6
2017-May-18 05:30N 32°19' W 117°32'714.2
2017-May-18 05:00N 32°13' W 117°28'13 0.7
2017-May-17 09:53N 32°03' W 117°17'3 8.8
2017-May-17 09:30N 32°05' W 117°20'5 9.1
2017-May-17 09:00N 32°09' W 117°23'5 9.2
2017-May-17 08:30N 32°12' W 117°27'5 9.3
2017-May-17 08:00N 32°15' W 117°31'4 8.9
2017-May-17 07:30N 32°19' W 117°34'5 9.6
2017-May-17 07:00N 32°23' W 117°35'510.0
2017-May-17 06:30N 32°28' W 117°35'5 9.5
2017-May-17 06:00N 32°33' W 117°37'510.2
2017-May-17 05:30N 32°35' W 117°42'5 9.8
2017-May-17 05:00N 32°39' W 117°46'510.1
2017-May-17 04:30N 32°44' W 117°47'510.1
2017-May-17 04:00N 32°49' W 117°48'510.1
2017-May-17 03:30N 32°54' W 117°50'510.1
2017-May-17 03:00N 32°58' W 117°54'510.0
2017-May-17 02:30N 33°02' W 117°58'5 9.9
2017-May-17 02:00N 33°05' W 118°02'5 9.7
2017-May-17 01:30N 33°09' W 118°05'5 9.4
2017-May-17 01:00N 33°13' W 118°09'5 9.4
2017-May-17 00:30N 33°16' W 118°13'5 9.6
2017-May-17 00:00N 33°20' W 118°17'2 4.2
2017-May-16 23:28N 33°21' W 118°19'0 0.1
2017-May-16 22:58N 33°21' W 118°19'0 0.0
2017-May-16 22:28N 33°21' W 118°19'0 0.0
2017-May-16 22:00N 33°21' W 118°19'0 0.1
2017-May-16 21:27N 33°21' W 118°19'0 0.1
2017-May-16 20:57N 33°21' W 118°19'0 0.0
2017-May-16 20:24N 33°21' W 118°19'0 0.0
2017-May-16 19:57N 33°21' W 118°19'0 0.1
2017-May-16 19:26N 33°21' W 118°19'0 0.1
2017-May-16 18:59N 33°21' W 118°19'0 0.1
2017-May-16 18:29N 33°21' W 118°19'0 0.1
2017-May-16 17:59N 33°21' W 118°19'0 0.0
2017-May-16 17:25N 33°21' W 118°19'0 0.0
2017-May-16 16:55N 33°21' W 118°19'0 0.0
2017-May-16 16:28N 33°21' W 118°19'0 0.1
2017-May-16 15:58N 33°21' W 118°19'0 0.0
2017-May-16 15:25N 33°21' W 118°19'0 0.0
2017-May-16 15:00N 33°21' W 118°19'0 0.1
2017-May-16 14:24N 33°21' W 118°19'2 2.3
2017-May-16 13:30N 33°19' W 118°17'3 6.9
2017-May-16 13:01N 33°16' W 118°17'3 6.3
2017-May-16 12:30N 33°13' W 118°17'3 6.6
2017-May-16 12:00N 33°09' W 118°17'4 7.5
2017-May-16 11:30N 33°06' W 118°16'4 7.1
2017-May-16 11:00N 33°03' W 118°14'3 6.8
2017-May-16 10:31N 33°01' W 118°11'4 7.3
2017-May-16 10:00N 32°58' W 118°07'4 7.5
2017-May-16 09:31N 32°56' W 118°04'4 8.0
2017-May-16 09:01N 32°53' W 118°01'4 7.9
2017-May-16 08:30N 32°50' W 117°58'4 8.0
2017-May-16 08:01N 32°46' W 117°55'4 7.9
2017-May-16 07:30N 32°43' W 117°53'4 8.3
2017-May-16 07:00N 32°39' W 117°51'4 8.0
2017-May-16 06:31N 32°37' W 117°48'4 8.4
2017-May-16 06:01N 32°36' W 117°43'4 7.8
2017-May-16 05:30N 32°34' W 117°39'4 8.1
2017-May-16 05:00N 32°30' W 117°38'4 8.1
2017-May-16 04:31N 32°26' W 117°38'4 8.1
2017-May-16 04:00N 32°22' W 117°38'4 7.9
2017-May-16 03:30N 32°18' W 117°38'4 7.6
2017-May-16 03:00N 32°14' W 117°38'4 7.8
2017-May-16 02:29N 32°10' W 117°38'5 0.4
2017-May-15 13:24N 32°05' W 117°36'3 8.1
2017-May-15 13:00N 32°08' W 117°36'4 8.2
2017-May-15 12:31N 32°12' W 117°36'4 8.4
2017-May-15 12:00N 32°16' W 117°37'4 8.0
2017-May-15 11:30N 32°20' W 117°37'4 8.2
2017-May-15 11:00N 32°25' W 117°37'4 8.9
2017-May-15 10:30N 32°29' W 117°37'4 8.9
2017-May-15 10:01N 32°33' W 117°37'  
Track history (hours):
 
Tides and Currents Weather Stations Pressure Air Temp Water Temp Dewpoint Dewpoint Depression Visibility Wind Speed Wind Dir Waves Ship Positions

Imagination

Operator: Carnival Cruise Lines

Last reported at 2017-May-25 10:30 UTC. Time now 2017-May-25 10:29 UTC.
Position N 33°26' W 118°05'.

Type: Ship. MMSI: 309933000.

Date/timePositionNaut miles runAvg speedWind from/ knotsBaromVisibWave heightAir tempDewpointWater temp
2017-May-25 10:30N 33°26' W 118°05'611.6
2017-May-25 10:00N 33°20' W 118°03'611.9
2017-May-25 09:31N 33°15' W 118°00'611.9
2017-May-25 09:01N 33°09' W 117°58'713.1
2017-May-25 08:30N 33°03' W 117°55'715.0
2017-May-25 08:00N 32°56' W 117°52'714.8
2017-May-25 07:30N 32°49' W 117°49'714.9
2017-May-25 07:00N 32°42' W 117°46'815.2
2017-May-25 06:31N 32°35' W 117°43'815.1
2017-May-25 06:00N 32°28' W 117°39'714.8
2017-May-25 05:31N 32°21' W 117°36'815.1
2017-May-25 05:00N 32°15' W 117°30'714.9
2017-May-25 04:30N 32°09' W 117°25'714.7
2017-May-25 04:00N 32°03' W 117°19'36 2.6
2017-May-24 13:55N 31°50' W 116°39'5 8.3
2017-May-24 13:16N 31°51' W 116°46'4 9.2
2017-May-24 12:51N 31°53' W 116°49'410.1
2017-May-24 12:30N 31°54' W 116°53'510.1
2017-May-24 12:00N 31°56' W 116°59'510.2
2017-May-24 11:30N 31°58' W 117°05'510.0
2017-May-24 11:00N 31°59' W 117°10'5 9.9
2017-May-24 10:30N 32°01' W 117°15'510.0
2017-May-24 10:00N 32°04' W 117°20'5 9.7
2017-May-24 09:30N 32°08' W 117°23'5 9.9
2017-May-24 09:00N 32°11' W 117°28'5 9.9
2017-May-24 08:30N 32°15' W 117°32'5 9.9
2017-May-24 08:00N 32°20' W 117°34'5 9.9
2017-May-24 07:30N 32°24' W 117°35'510.6
2017-May-24 07:00N 32°30' W 117°36'510.2
2017-May-24 06:30N 32°34' W 117°39'510.1
2017-May-24 06:00N 32°37' W 117°44'510.5
2017-May-24 05:30N 32°42' W 117°46'510.7
2017-May-24 05:00N 32°47' W 117°48'510.8
2017-May-24 04:30N 32°52' W 117°51'510.6
2017-May-24 04:00N 32°56' W 117°55'510.0
2017-May-24 03:30N 33°00' W 117°57'5 9.9
2017-May-24 03:00N 33°05' W 118°01'510.1
2017-May-24 02:30N 33°08' W 118°05'5 9.8
2017-May-24 02:00N 33°12' W 118°08'5 9.9
2017-May-24 01:30N 33°16' W 118°12'510.0
2017-May-24 01:00N 33°19' W 118°17'3 5.5
2017-May-24 00:30N 33°21' W 118°19'0 0.1
2017-May-24 00:00N 33°21' W 118°19'0 0.2
2017-May-23 23:30N 33°21' W 118°19'0 0.1
2017-May-23 23:00N 33°21' W 118°19'0 0.0
2017-May-23 22:30N 33°21' W 118°19'0 0.1
2017-May-23 22:00N 33°21' W 118°19'0 0.0
2017-May-23 21:30N 33°21' W 118°19'0 0.0
2017-May-23 21:00N 33°21' W 118°19'0 0.1
2017-May-23 20:30N 33°21' W 118°19'0 0.1
2017-May-23 20:00N 33°21' W 118°19'0 0.0
2017-May-23 19:30N 33°21' W 118°19'0 0.0
2017-May-23 19:00N 33°21' W 118°19'0 0.0
2017-May-23 18:30N 33°21' W 118°19'0 0.0
2017-May-23 18:00N 33°21' W 118°19'0 0.0
2017-May-23 17:30N 33°21' W 118°19'0 0.0
2017-May-23 17:00N 33°21' W 118°19'0 0.0
2017-May-23 16:30N 33°21' W 118°19'0 0.0
2017-May-23 16:00N 33°21' W 118°19'0 0.0
2017-May-23 15:30N 33°21' W 118°19'0 0.1
2017-May-23 15:00N 33°21' W 118°19'0 0.1
2017-May-23 14:00N 33°21' W 118°19'2 4.2
2017-May-23 13:30N 33°20' W 118°17'3 6.9
2017-May-23 13:00N 33°16' W 118°17'4 7.0
2017-May-23 12:30N 33°13' W 118°17'4 7.0
2017-May-23 12:00N 33°09' W 118°16'4 7.1
2017-May-23 11:30N 33°06' W 118°16'4 7.3
2017-May-23 11:00N 33°03' W 118°13'4 7.3
2017-May-23 10:30N 33°00' W 118°10'4 7.4
2017-May-23 10:00N 32°58' W 118°07'4 7.4
2017-May-23 09:30N 32°55' W 118°04'4 7.5
2017-May-23 09:00N 32°53' W 118°00'4 7.6
2017-May-23 08:30N 32°50' W 117°58'4 7.7
2017-May-23 08:00N 32°46' W 117°56'4 7.7
2017-May-23 07:30N 32°43' W 117°54'4 8.1
2017-May-23 07:00N 32°39' W 117°51'4 8.1
2017-May-23 06:30N 32°36' W 117°48'4 8.8
2017-May-23 06:00N 32°36' W 117°43'5 9.1
2017-May-23 05:30N 32°33' W 117°38'5 9.0
2017-May-23 05:00N 32°28' W 117°38'5 9.2
2017-May-23 04:30N 32°24' W 117°38'5 9.2
2017-May-23 04:00N 32°19' W 117°38'5 9.2
2017-May-23 03:30N 32°15' W 117°38'4 9.0
2017-May-23 03:00N 32°10' W 117°38'4 8.5
2017-May-23 02:30N 32°06' W 117°38'4 8.4
2017-May-23 02:00N 32°02' W 117°38'4 8.4
2017-May-23 01:30N 31°58' W 117°38'4 7.8
2017-May-23 01:00N 31°54' W 117°40'4 8.6
2017-May-23 00:30N 31°52' W 117°44'4 8.4
2017-May-23 00:00N 31°50' W 117°49'4 8.7
2017-May-22 23:30N 31°48' W 117°53'4 8.5
2017-May-22 23:00N 31°46' W 117°58'4 8.6
2017-May-22 22:30N 31°45' W 118°03'4 7.9
2017-May-22 22:00N 31°45' W 118°08'4 8.3
2017-May-22 21:30N 31°42' W 118°12'4 8.3
2017-May-22 21:00N 31°38' W 118°12'4 7.5
2017-May-22 20:30N 31°35' W 118°10'4 8.3
2017-May-22 20:00N 31°35' W 118°05'4 8.8
2017-May-22 19:30N 31°36' W 118°00'4 8.7
2017-May-22 19:00N 31°38' W 117°55'4 8.3
2017-May-22 18:30N 31°39' W 117°51'4 8.3
2017-May-22 18:00N 31°41' W 117°46'5 9.5
2017-May-22 17:30N 31°43' W 117°42'714.2
2017-May-22 17:01N 31°49' W 117°37'815.7
2017-May-22 16:30N 31°57' W 117°37'715.0
2017-May-22 16:00N 32°04' W 117°37'5 9.0
2017-May-22 15:28N 32°09' W 117°37'4 8.0
2017-May-22 15:00N 32°13' W 117°37'8 7.9
2017-May-22 14:00N 32°21' W 117°36'4 7.9
2017-May-22 13:30N 32°25' W 117°36'4 7.7
2017-May-22 13:00N 32°29' W 117°37'4 7.4
2017-May-22 12:30N 32°32' W 117°37'3 6.4
2017-May-22 12:00N 32°35' W 117°39'4 7.3
2017-May-22 11:30N 32°36' W 117°43'3 6.6
2017-May-22 11:00N 32°38' W 117°46'3 6.8
2017-May-22 10:30N 32°41' W 117°48'3 6.7
2017-May-22 10:00N 32°44' W 117°49'3 6.4
2017-May-22 09:30N 32°47' W 117°51'3 6.4
2017-May-22 09:00N 32°50' W 117°52'3 6.5
2017-May-22 08:30N 32°53' W 117°54'3 6.6
2017-May-22 08:00N 32°56' W 117°55'3 6.6
2017-May-22 07:30N 32°59' W 117°57'3 6.6
2017-May-22 07:00N 33°03' W 117°58'3 6.6
2017-May-22 06:30N 33°06' W 117°60'3 6.6
2017-May-22 06:00N 33°09' W 118°01'3 6.8
2017-May-22 05:30N 33°12' W 118°03'3 6.7
2017-May-22 05:00N 33°15' W 118°04'3 6.7
2017-May-22 04:30N 33°18' W 118°06'3 6.7
2017-May-22 04:00N 33°21' W 118°07'3 7.0
2017-May-22 03:30N 33°24' W 118°09'4 7.2
2017-May-22 03:00N 33°28' W 118°10'4 7.7
2017-May-22 02:30N 33°31' W 118°12'5 9.2
2017-May-22 02:00N 33°36' W 118°13'611.4
2017-May-22 01:30N 33°41' W 118°12'4 7.5
2017-May-22 01:00N 33°45' W 118°11'0 0.1
2017-May-22 00:30N 33°45' W 118°11'0 0.0
2017-May-22 00:00N 33°45' W 118°11'0 0.0
2017-May-21 23:30N 33°45' W 118°11'0 0.0
2017-May-21 23:00N 33°45' W 118°11'0 0.0
2017-May-21 22:29N 33°45' W 118°11'0 0.0
2017-May-21 21:56N 33°45' W 118°11'0 0.0
2017-May-21 21:29N 33°45' W 118°11'0 0.0
2017-May-21 20:59N 33°45' W 118°11'0 0.0
2017-May-21 20:25N 33°45' W 118°11'0 0.0
2017-May-21 19:58N 33°45' W 118°11'0 0.0
2017-May-21 19:28N 33°45' W 118°11'0 0.0
2017-May-21 18:58N 33°45' W 118°11'0 0.0
2017-May-21 18:28N 33°45' W 118°11'0 0.1
2017-May-21 18:00N 33°45' W 118°11'0 0.0
2017-May-21 17:27N 33°45' W 118°11'0 0.0
2017-May-21 16:57N 33°45' W 118°11'0 0.0
2017-May-21 16:27N 33°45' W 118°11'0 0.0
2017-May-21 15:54N 33°45' W 118°11'0 0.0
2017-May-21 15:29N 33°45' W 118°11'0 0.0
2017-May-21 14:59N 33°45' W 118°11'0 0.0
2017-May-21 13:59N 33°45' W 118°11'0 0.0
2017-May-21 13:29N 33°45' W 118°11'0 0.0
2017-May-21 12:59N 33°45' W 118°11'0 0.7
2017-May-21 12:30N 33°45' W 118°11'3 6.4
2017-May-21 12:00N 33°42' W 118°11'510.6
2017-May-21 11:31N 33°36' W 118°10'611.2
2017-May-21 11:01N 33°31' W 118°08'611.5
2017-May-21 10:31N 33°26' W 118°05'611.7
2017-May-21 10:00N 33°20' W 118°03'611.6
2017-May-21 09:30N 33°15' W 118°00'611.6
2017-May-21 09:01N 33°09' W 117°58'612.2
2017-May-21 08:31N 33°04' W 117°56'815.3
2017-May-21 08:01N 32°56' W 117°52'815.3
2017-May-21 07:30N 32°49' W 117°49'815.2
2017-May-21 07:00N 32°42' W 117°46'815.1
2017-May-21 06:30N 32°35' W 117°43'815.0
2017-May-21 06:00N 32°28' W 117°39'714.9
2017-May-21 05:31N 32°22' W 117°35'714.8
2017-May-21 05:01N 32°15' W 117°31'714.8
2017-May-21 04:30N 32°09' W 117°25'815.0
2017-May-21 04:00N 32°03' W 117°20'714.6
2017-May-21 03:30N 31°59' W 117°13'714.9
2017-May-21 03:00N 31°58' W 117°04'714.6
2017-May-21 02:30N 31°55' W 116°56'714.6
2017-May-21 02:00N 31°53' W 116°48'2 0.2
2017-May-20 12:20N 31°53' W 116°51'6 6.5
2017-May-20 11:21N 31°51' W 116°58'2 6.4
2017-May-20 11:00N 31°51' W 117°00'3 6.2
2017-May-20 10:30N 31°50' W 117°04'3 6.3
2017-May-20 10:00N 31°49' W 117°07'3 6.4
2017-May-20 09:30N 31°48' W 117°11'3 6.3
2017-May-20 09:00N 31°47' W 117°15'3 6.4
2017-May-20 08:30N 31°46' W 117°18'3 6.3
2017-May-20 08:00N 31°45' W 117°22'3 6.2
2017-May-20 07:30N 31°45' W 117°25'3 6.3
2017-May-20 07:00N 31°44' W 117°29'3 6.5
2017-May-20 06:30N 31°43' W 117°33'3 6.6
2017-May-20 06:00N 31°42' W 117°36'3 6.5
2017-May-20 05:30N 31°41' W 117°40'3 6.3
2017-May-20 05:00N 31°40' W 117°44'3 6.4
2017-May-20 04:30N 31°39' W 117°47'3 6.4
2017-May-20 04:00N 31°38' W 117°51'3 6.6
2017-May-20 03:30N 31°38' W 117°55'3 6.5
2017-May-20 03:00N 31°37' W 117°58'3 6.4
2017-May-20 02:30N 31°36' W 118°02'3 6.4
2017-May-20 02:00N 31°35' W 118°05'3 6.5
2017-May-20 01:30N 31°34' W 118°09'3 5.5
2017-May-20 01:00N 31°35' W 118°12'3 6.6
2017-May-20 00:30N 31°38' W 118°12'3 6.5
2017-May-20 00:00N 31°42' W 118°12'3 6.3
2017-May-19 23:30N 31°44' W 118°10'3 6.6
2017-May-19 23:00N 31°45' W 118°06'3 6.2
2017-May-19 22:30N 31°45' W 118°02'3 6.5
2017-May-19 22:00N 31°46' W 117°58'3 6.3
2017-May-19 21:30N 31°46' W 117°55'3 6.6
2017-May-19 21:00N 31°47' W 117°51'3 6.3
2017-May-19 20:30N 31°48' W 117°47'3 6.3
2017-May-19 20:00N 31°49' W 117°44'3 6.2
2017-May-19 19:28N 31°49' W 117°40'3 6.2
2017-May-19 19:00N 31°51' W 117°37'3 6.3
2017-May-19 18:30N 31°54' W 117°37'3 6.2
2017-May-19 18:00N 31°57' W 117°37'3 6.3
2017-May-19 17:31N 32°00' W 117°38'3 6.5
2017-May-19 17:00N 32°03' W 117°38'3 6.5
2017-May-19 16:30N 32°07' W 117°39'3 6.7
2017-May-19 16:00N 32°10' W 117°39'3 6.9
2017-May-19 15:30N 32°13' W 117°40'3 6.7
2017-May-19 15:01N 32°17' W 117°41'7 6.5
2017-May-19 14:00N 32°23' W 117°42'3 6.5
2017-May-19 13:30N 32°26' W 117°42'3 6.5
2017-May-19 13:00N 32°30' W 117°43'3 6.5
2017-May-19 12:30N 32°33' W 117°43'3 6.6
2017-May-19 12:00N 32°36' W 117°44'3 6.4
2017-May-19 11:30N 32°39' W 117°45'3 6.4
2017-May-19 11:00N 32°42' W 117°46'3 6.6
2017-May-19 10:31N 32°45' W 117°47'3 6.7
2017-May-19 10:00N 32°49' W 117°48'3 6.5
2017-May-19 09:30N 32°52' W 117°50'3 6.2
2017-May-19 09:01N 32°54' W 117°51'3 6.6
2017-May-19 08:30N 32°57' W 117°53'3 6.3
2017-May-19 08:01N 33°00' W 117°55'3 6.4
2017-May-19 07:30N 33°03' W 117°56'3 6.3
2017-May-19 07:00N 33°06' W 117°58'3 6.4
2017-May-19 06:30N 33°09' W 117°59'3 6.3
2017-May-19 06:00N 33°12' W 118°01'3 6.2
2017-May-19 05:30N 33°14' W 118°03'3 6.3
2017-May-19 05:00N 33°17' W 118°05'3 6.5
2017-May-19 04:31N 33°20' W 118°06'3 6.5
2017-May-19 04:00N 33°23' W 118°08'3 6.4
2017-May-19 03:30N 33°26' W 118°09'3 6.5
2017-May-19 03:00N 33°29' W 118°11'3 6.3
2017-May-19 02:30N 33°32' W 118°12'4 8.2
2017-May-19 02:00N 33°36' W 118°13'611.5
2017-May-19 01:30N 33°42' W 118°12'3 7.0
2017-May-19 01:01N 33°45' W 118°11'0 0.0
2017-May-19 00:30N 33°45' W 118°11'0 0.0
2017-May-19 00:00N 33°45' W 118°11'0 0.0
2017-May-18 23:30N 33°45' W 118°11'0 0.0
2017-May-18 23:00N 33°45' W 118°11'0 0.0
2017-May-18 22:29N 33°45' W 118°11'0 0.0
2017-May-18 21:59N 33°45' W 118°11'0 0.0
2017-May-18 21:29N 33°45' W 118°11'0 0.0
2017-May-18 20:59N 33°45' W 118°11'0 0.0
2017-May-18 20:26N 33°45' W 118°11'0 0.0
2017-May-18 19:55N 33°45' W 118°11'0 0.0
2017-May-18 19:16N 33°45' W 118°11'0 0.0
2017-May-18 18:58N 33°45' W 118°11'0 0.0
2017-May-18 18:25N 33°45' W 118°11'0 0.0
2017-May-18 17:54N 33°45' W 118°11'0 0.0
2017-May-18 17:24N 33°45' W 118°11'0 0.0
2017-May-18 16:45N 33°45' W 118°11'0 0.0
2017-May-18 16:24N 33°45' W 118°11'0 0.0
2017-May-18 12:47N 33°45' W 118°11'0 1.0
2017-May-18 12:30N 33°45' W 118°11'3 6.6
2017-May-18 12:00N 33°42' W 118°11'510.8
2017-May-18 11:30N 33°36' W 118°10'611.6
2017-May-18 11:00N 33°31' W 118°08'511.0
2017-May-18 10:30N 33°25' W 118°06'611.3
2017-May-18 10:00N 33°20' W 118°03'612.7
2017-May-18 09:31N 33°14' W 117°60'815.2
2017-May-18 09:00N 33°07' W 117°57'815.3
2017-May-18 08:30N 33°00' W 117°54'815.5
2017-May-18 08:00N 32°53' W 117°51'815.4
2017-May-18 07:31N 32°45' W 117°48'815.2
2017-May-18 07:00N 32°39' W 117°44'714.9
2017-May-18 06:30N 32°32' W 117°41'714.6
2017-May-18 06:00N 32°25' W 117°37'714.6
2017-May-18 05:30N 32°19' W 117°32'714.2
2017-May-18 05:00N 32°13' W 117°28'13 0.7
2017-May-17 09:53N 32°03' W 117°17'3 8.8
2017-May-17 09:30N 32°05' W 117°20'5 9.1
2017-May-17 09:00N 32°09' W 117°23'5 9.2
2017-May-17 08:30N 32°12' W 117°27'5 9.3
2017-May-17 08:00N 32°15' W 117°31'4 8.9
2017-May-17 07:30N 32°19' W 117°34'5 9.6
2017-May-17 07:00N 32°23' W 117°35'510.0
2017-May-17 06:30N 32°28' W 117°35'5 9.5
2017-May-17 06:00N 32°33' W 117°37'510.2
2017-May-17 05:30N 32°35' W 117°42'5 9.8
2017-May-17 05:00N 32°39' W 117°46'510.1
2017-May-17 04:30N 32°44' W 117°47'510.1
2017-May-17 04:00N 32°49' W 117°48'510.1
2017-May-17 03:30N 32°54' W 117°50'510.1
2017-May-17 03:00N 32°58' W 117°54'510.0
2017-May-17 02:30N 33°02' W 117°58'5 9.9
2017-May-17 02:00N 33°05' W 118°02'5 9.7
2017-May-17 01:30N 33°09' W 118°05'5 9.4
2017-May-17 01:00N 33°13' W 118°09'5 9.4
2017-May-17 00:30N 33°16' W 118°13'5 9.6
2017-May-17 00:00N 33°20' W 118°17'2 4.2
2017-May-16 23:28N 33°21' W 118°19'0 0.1
2017-May-16 22:58N 33°21' W 118°19'0 0.0
2017-May-16 22:28N 33°21' W 118°19'0 0.0
2017-May-16 22:00N 33°21' W 118°19'0 0.1
2017-May-16 21:27N 33°21' W 118°19'0 0.1
2017-May-16 20:57N 33°21' W 118°19'0 0.0
2017-May-16 20:24N 33°21' W 118°19'0 0.0
2017-May-16 19:57N 33°21' W 118°19'0 0.1
2017-May-16 19:26N 33°21' W 118°19'0 0.1
2017-May-16 18:59N 33°21' W 118°19'0 0.1
2017-May-16 18:29N 33°21' W 118°19'0 0.1
2017-May-16 17:59N 33°21' W 118°19'0 0.0
2017-May-16 17:25N 33°21' W 118°19'0 0.0
2017-May-16 16:55N 33°21' W 118°19'0 0.0
2017-May-16 16:28N 33°21' W 118°19'0 0.1
2017-May-16 15:58N 33°21' W 118°19'0 0.0
2017-May-16 15:25N 33°21' W 118°19'0 0.0
2017-May-16 15:00N 33°21' W 118°19'0 0.1
2017-May-16 14:24N 33°21' W 118°19'2 2.3
2017-May-16 13:30N 33°19' W 118°17'3 6.9
2017-May-16 13:01N 33°16' W 118°17'3 6.3
2017-May-16 12:30N 33°13' W 118°17'3 6.6
2017-May-16 12:00N 33°09' W 118°17'4 7.5
2017-May-16 11:30N 33°06' W 118°16'4 7.1
2017-May-16 11:00N 33°03' W 118°14'3 6.8
2017-May-16 10:31N 33°01' W 118°11'4 7.3
2017-May-16 10:00N 32°58' W 118°07'4 7.5
2017-May-16 09:31N 32°56' W 118°04'4 8.0
2017-May-16 09:01N 32°53' W 118°01'4 7.9
2017-May-16 08:30N 32°50' W 117°58'4 8.0
2017-May-16 08:01N 32°46' W 117°55'4 7.9
2017-May-16 07:30N 32°43' W 117°53'4 8.3
2017-May-16 07:00N 32°39' W 117°51'4 8.0
2017-May-16 06:31N 32°37' W 117°48'4 8.4
2017-May-16 06:01N 32°36' W 117°43'4 7.8
2017-May-16 05:30N 32°34' W 117°39'4 8.1
2017-May-16 05:00N 32°30' W 117°38'4 8.1
2017-May-16 04:31N 32°26' W 117°38'4 8.1
2017-May-16 04:00N 32°22' W 117°38'4 7.9
2017-May-16 03:30N 32°18' W 117°38'4 7.6
2017-May-16 03:00N 32°14' W 117°38'4 7.8
2017-May-16 02:29N 32°10' W 117°38'5 0.4
2017-May-15 13:24N 32°05' W 117°36'3 8.1
2017-May-15 13:00N 32°08' W 117°36'4 8.2
2017-May-15 12:31N 32°12' W 117°36'4 8.4
2017-May-15 12:00N 32°16' W 117°37'4 8.0
2017-May-15 11:30N 32°20' W 117°37'4 8.2
2017-May-15 11:00N 32°25' W 117°37'4 8.9
2017-May-15 10:30N 32°29' W 117°37'4 8.9
2017-May-15 10:01N 32°33' W 117°37'  

Dump ship's entire track history